KLGB

Long Beach / Daugherty Field / Airport

Long Beach, California, USA
METAR KLGB 280053Z 31008KT 10SM CLR 22/13 A2989 RMK AO2 SLP120 T02170128 $
Observed Flight Rules
May-28 @ 00:53 UTC (18 minutes ago) Visual Flight Rules
Wind Visibility Clouds
310° at 8 knots 10 miles
  • Clear skies
Temperatures Readings
Current 22°C / 72°F
Dewpoint 13°C / 55°F
Humidity 57%
Altimeter 29.89" Hg
Pressure 1012 hPa
Elevation 10
METAR KLGB 280053Z 31008KT 10SM CLR 22/13 A2989 RMK AO2 SLP120 T02170128 $
Observed Flight Rules
May-28 @ 00:53 UTC
(18 minutes ago)
VFR
Wind Visibility
310° at 8 knots 10 miles
Clouds
  • Clear skies
Temperature Dewpoint
22°C / 72°F 13°C / 55°F
Humidity Altimeter Pressure
57% 29.89" Hg 1012 hPa